sensor_id;sensor_type;location;lat;lon;timestamp;P1;durP1;ratioP1;P2;durP2;ratioP2
63114;SDS011;49208;50.874;6.466;2023-09-19T06:01:07;9.60;;;1.90;;
63114;SDS011;49208;50.874;6.466;2023-09-19T06:03:34;7.85;;;2.05;;
63114;SDS011;49208;50.874;6.466;2023-09-19T06:06:01;9.73;;;2.20;;
63114;SDS011;49208;50.874;6.466;2023-09-19T06:08:26;8.45;;;1.70;;
63114;SDS011;49208;50.874;6.466;2023-09-19T06:10:53;5.72;;;2.10;;
63114;SDS011;49208;50.874;6.466;2023-09-19T06:13:18;7.00;;;2.65;;
63114;SDS011;49208;50.874;6.466;2023-09-19T06:15:44;8.43;;;2.03;;
63114;SDS011;49208;50.874;6.466;2023-09-19T06:18:11;5.72;;;1.90;;
63114;SDS011;49208;50.874;6.466;2023-09-19T06:20:42;8.65;;;1.73;;
63114;SDS011;49208;50.874;6.466;2023-09-19T06:23:09;10.82;;;2.10;;
63114;SDS011;49208;50.874;6.466;2023-09-19T06:25:35;7.53;;;2.17;;
63114;SDS011;49208;50.874;6.466;2023-09-19T06:28:00;5.13;;;1.85;;
63114;SDS011;49208;50.874;6.466;2023-09-19T06:30:29;5.43;;;1.58;;
63114;SDS011;49208;50.874;6.466;2023-09-19T06:32:59;8.20;;;2.50;;
63114;SDS011;49208;50.874;6.466;2023-09-19T06:35:26;8.05;;;1.92;;
63114;SDS011;49208;50.874;6.466;2023-09-19T06:37:52;10.13;;;2.00;;
63114;SDS011;49208;50.874;6.466;2023-09-19T06:40:17;10.30;;;2.00;;
63114;SDS011;49208;50.874;6.466;2023-09-19T06:42:44;8.52;;;2.40;;
63114;SDS011;49208;50.874;6.466;2023-09-19T06:45:15;8.85;;;1.75;;
63114;SDS011;49208;50.874;6.466;2023-09-19T06:47:49;8.48;;;2.13;;
63114;SDS011;49208;50.874;6.466;2023-09-19T06:50:19;12.57;;;2.45;;
63114;SDS011;49208;50.874;6.466;2023-09-19T06:52:47;7.95;;;2.40;;
63114;SDS011;49208;50.874;6.466;2023-09-19T06:55:15;9.65;;;2.22;;
63114;SDS011;49208;50.874;6.466;2023-09-19T06:57:41;6.97;;;1.80;;
63114;SDS011;49208;50.874;6.466;2023-09-19T07:00:09;14.00;;;2.97;;
63114;SDS011;49208;50.874;6.466;2023-09-19T07:02:43;6.35;;;1.92;;
63114;SDS011;49208;50.874;6.466;2023-09-19T07:05:08;7.85;;;2.05;;
63114;SDS011;49208;50.874;6.466;2023-09-19T07:07:34;8.68;;;2.03;;
63114;SDS011;49208;50.874;6.466;2023-09-19T07:10:00;8.02;;;2.05;;
63114;SDS011;49208;50.874;6.466;2023-09-19T07:12:26;8.10;;;2.10;;
63114;SDS011;49208;50.874;6.466;2023-09-19T07:14:52;12.48;;;2.42;;
63114;SDS011;49208;50.874;6.466;2023-09-19T07:17:18;8.75;;;2.20;;
63114;SDS011;49208;50.874;6.466;2023-09-19T07:19:44;10.48;;;2.70;;
63114;SDS011;49208;50.874;6.466;2023-09-19T07:22:10;6.50;;;1.85;;
63114;SDS011;49208;50.874;6.466;2023-09-19T07:24:35;8.80;;;2.08;;
63114;SDS011;49208;50.874;6.466;2023-09-19T07:27:01;11.57;;;2.53;;
63114;SDS011;49208;50.874;6.466;2023-09-19T07:29:28;8.18;;;1.80;;
63114;SDS011;49208;50.874;6.466;2023-09-19T07:31:53;7.95;;;1.75;;
63114;SDS011;49208;50.874;6.466;2023-09-19T07:34:19;9.15;;;1.88;;
63114;SDS011;49208;50.874;6.466;2023-09-19T07:36:47;9.65;;;2.00;;
63114;SDS011;49208;50.874;6.466;2023-09-19T07:39:12;6.53;;;1.88;;
63114;SDS011;49208;50.874;6.466;2023-09-19T07:41:38;6.28;;;1.88;;
63114;SDS011;49208;50.874;6.466;2023-09-19T07:44:03;7.32;;;1.70;;
63114;SDS011;49208;50.874;6.466;2023-09-19T07:46:29;5.53;;;1.75;;
63114;SDS011;49208;50.874;6.466;2023-09-19T07:48:56;5.65;;;1.67;;
63114;SDS011;49208;50.874;6.466;2023-09-19T07:51:21;8.32;;;1.95;;
63114;SDS011;49208;50.874;6.466;2023-09-19T07:53:47;6.75;;;1.88;;
63114;SDS011;49208;50.874;6.466;2023-09-19T07:56:13;9.77;;;1.88;;
63114;SDS011;49208;50.874;6.466;2023-09-19T07:58:39;7.85;;;1.60;;
63114;SDS011;49208;50.874;6.466;2023-09-19T08:01:09;7.63;;;1.55;;
63114;SDS011;49208;50.874;6.466;2023-09-19T08:03:36;7.75;;;1.75;;
63114;SDS011;49208;50.874;6.466;2023-09-19T08:06:07;7.88;;;1.63;;
63114;SDS011;49208;50.874;6.466;2023-09-19T08:08:33;6.40;;;1.98;;
63114;SDS011;49208;50.874;6.466;2023-09-19T08:11:02;6.25;;;2.22;;
63114;SDS011;49208;50.874;6.466;2023-09-19T08:13:40;6.90;;;2.10;;
63114;SDS011;49208;50.874;6.466;2023-09-19T08:16:10;10.02;;;2.55;;
63114;SDS011;49208;50.874;6.466;2023-09-19T08:18:36;10.43;;;2.05;;
63114;SDS011;49208;50.874;6.466;2023-09-19T08:21:05;9.55;;;2.08;;
63114;SDS011;49208;50.874;6.466;2023-09-19T08:23:35;8.13;;;2.25;;
63114;SDS011;49208;50.874;6.466;2023-09-19T08:26:04;6.43;;;2.05;;
63114;SDS011;49208;50.874;6.466;2023-09-19T08:28:36;8.20;;;1.95;;
63114;SDS011;49208;50.874;6.466;2023-09-19T08:31:05;5.10;;;1.55;;
63114;SDS011;49208;50.874;6.466;2023-09-19T08:33:35;6.25;;;1.83;;
63114;SDS011;49208;50.874;6.466;2023-09-19T08:36:01;6.07;;;1.48;;
63114;SDS011;49208;50.874;6.466;2023-09-19T08:38:30;7.82;;;1.90;;
63114;SDS011;49208;50.874;6.466;2023-09-19T08:40:58;6.82;;;1.55;;
63114;SDS011;49208;50.874;6.466;2023-09-19T08:43:30;6.97;;;1.50;;
63114;SDS011;49208;50.874;6.466;2023-09-19T08:45:58;6.80;;;1.70;;
63114;SDS011;49208;50.874;6.466;2023-09-19T08:48:33;6.82;;;1.60;;
63114;SDS011;49208;50.874;6.466;2023-09-19T08:51:42;5.72;;;1.42;;
63114;SDS011;49208;50.874;6.466;2023-09-19T08:53:59;5.03;;;1.70;;
63114;SDS011;49208;50.874;6.466;2023-09-19T08:56:26;4.32;;;1.60;;
63114;SDS011;49208;50.874;6.466;2023-09-19T08:58:55;8.07;;;1.50;;
63114;SDS011;49208;50.874;6.466;2023-09-19T09:01:25;7.65;;;1.92;;
63114;SDS011;49208;50.874;6.466;2023-09-19T09:03:53;6.70;;;1.90;;
63114;SDS011;49208;50.874;6.466;2023-09-19T09:06:19;7.13;;;1.80;;
63114;SDS011;49208;50.874;6.466;2023-09-19T09:08:45;5.75;;;1.73;;
63114;SDS011;49208;50.874;6.466;2023-09-19T09:11:12;6.40;;;2.03;;
63114;SDS011;49208;50.874;6.466;2023-09-19T09:16:06;8.45;;;1.65;;
63114;SDS011;49208;50.874;6.466;2023-09-19T09:18:32;9.65;;;1.73;;
63114;SDS011;49208;50.874;6.466;2023-09-19T09:20:58;10.02;;;2.00;;
63114;SDS011;49208;50.874;6.466;2023-09-19T09:23:23;8.35;;;2.03;;
63114;SDS011;49208;50.874;6.466;2023-09-19T09:25:53;5.47;;;1.90;;
63114;SDS011;49208;50.874;6.466;2023-09-19T09:28:23;5.95;;;2.00;;
63114;SDS011;49208;50.874;6.466;2023-09-19T09:30:50;6.30;;;1.70;;
63114;SDS011;49208;50.874;6.466;2023-09-19T09:33:16;7.25;;;1.92;;
63114;SDS011;49208;50.874;6.466;2023-09-19T09:35:51;9.30;;;1.88;;
63114;SDS011;49208;50.874;6.466;2023-09-19T09:38:19;6.22;;;2.00;;
63114;SDS011;49208;50.874;6.466;2023-09-19T09:40:46;5.43;;;1.73;;
63114;SDS011;49208;50.874;6.466;2023-09-19T09:43:30;9.40;;;1.75;;
63114;SDS011;49208;50.874;6.466;2023-09-19T09:46:16;8.15;;;2.20;;
63114;SDS011;49208;50.874;6.466;2023-09-19T09:48:46;4.43;;;1.95;;
63114;SDS011;49208;50.874;6.466;2023-09-19T09:51:33;5.10;;;1.90;;
63114;SDS011;49208;50.874;6.466;2023-09-19T09:54:11;6.07;;;1.88;;
63114;SDS011;49208;50.874;6.466;2023-09-19T09:56:57;8.25;;;2.00;;
63114;SDS011;49208;50.874;6.466;2023-09-19T10:02:11;8.38;;;1.85;;
63114;SDS011;49208;50.874;6.466;2023-09-19T10:04:38;4.60;;;1.40;;
63114;SDS011;49208;50.874;6.466;2023-09-19T10:07:24;9.00;;;2.50;;
63114;SDS011;49208;50.874;6.466;2023-09-19T10:09:54;6.75;;;2.00;;
63114;SDS011;49208;50.874;6.466;2023-09-19T10:12:29;6.65;;;1.65;;
63114;SDS011;49208;50.874;6.466;2023-09-19T10:14:56;4.72;;;1.70;;
63114;SDS011;49208;50.874;6.466;2023-09-19T10:17:25;9.00;;;2.25;;
63114;SDS011;49208;50.874;6.466;2023-09-19T10:19:56;6.45;;;2.00;;
63114;SDS011;49208;50.874;6.466;2023-09-19T10:22:30;6.07;;;1.98;;
63114;SDS011;49208;50.874;6.466;2023-09-19T10:25:00;5.90;;;2.22;;
63114;SDS011;49208;50.874;6.466;2023-09-19T10:27:28;7.63;;;1.67;;
63114;SDS011;49208;50.874;6.466;2023-09-19T10:29:54;7.78;;;1.83;;
63114;SDS011;49208;50.874;6.466;2023-09-19T10:32:22;5.63;;;2.25;;
63114;SDS011;49208;50.874;6.466;2023-09-19T10:34:48;6.93;;;1.73;;
63114;SDS011;49208;50.874;6.466;2023-09-19T10:37:16;8.40;;;1.77;;
63114;SDS011;49208;50.874;6.466;2023-09-19T10:39:46;4.95;;;1.88;;
63114;SDS011;49208;50.874;6.466;2023-09-19T10:42:14;5.85;;;1.55;;
63114;SDS011;49208;50.874;6.466;2023-09-19T10:44:44;7.00;;;1.83;;
63114;SDS011;49208;50.874;6.466;2023-09-19T10:47:12;5.63;;;1.50;;
63114;SDS011;49208;50.874;6.466;2023-09-19T10:49:44;6.73;;;1.70;;
63114;SDS011;49208;50.874;6.466;2023-09-19T10:52:15;6.03;;;1.80;;
63114;SDS011;49208;50.874;6.466;2023-09-19T10:54:46;6.15;;;1.63;;
63114;SDS011;49208;50.874;6.466;2023-09-19T10:57:23;6.00;;;1.80;;
63114;SDS011;49208;50.874;6.466;2023-09-19T11:00:07;9.57;;;1.92;;
63114;SDS011;49208;50.874;6.466;2023-09-19T11:14:15;5.20;;;1.50;;
63114;SDS011;49208;50.874;6.466;2023-09-19T11:30:38;4.18;;;1.60;;
63114;SDS011;49208;50.874;6.466;2023-09-19T11:33:22;8.15;;;1.58;;
63114;SDS011;49208;50.874;6.466;2023-09-19T11:39:01;9.15;;;1.70;;
63114;SDS011;49208;50.874;6.466;2023-09-19T11:41:36;8.05;;;1.58;;
63114;SDS011;49208;50.874;6.466;2023-09-19T11:46:34;7.93;;;1.60;;
63114;SDS011;49208;50.874;6.466;2023-09-19T11:49:17;5.38;;;1.55;;
63114;SDS011;49208;50.874;6.466;2023-09-19T11:51:48;6.18;;;1.83;;
63114;SDS011;49208;50.874;6.466;2023-09-19T11:54:16;8.52;;;1.88;;
63114;SDS011;49208;50.874;6.466;2023-09-19T11:56:48;7.10;;;1.50;;
63114;SDS011;49208;50.874;6.466;2023-09-19T11:59:21;4.07;;;1.48;;
63114;SDS011;49208;50.874;6.466;2023-09-19T12:01:54;10.02;;;1.77;;
63114;SDS011;49208;50.874;6.466;2023-09-19T12:07:03;5.40;;;1.40;;
63114;SDS011;49208;50.874;6.466;2023-09-19T12:12:13;5.10;;;1.48;;
63114;SDS011;49208;50.874;6.466;2023-09-19T12:14:48;5.03;;;1.80;;
63114;SDS011;49208;50.874;6.466;2023-09-19T12:17:13;5.57;;;1.50;;
63114;SDS011;49208;50.874;6.466;2023-09-19T12:19:47;4.40;;;1.88;;
63114;SDS011;49208;50.874;6.466;2023-09-19T12:22:16;6.65;;;1.58;;
63114;SDS011;49208;50.874;6.466;2023-09-19T12:24:43;7.13;;;1.20;;
63114;SDS011;49208;50.874;6.466;2023-09-19T12:27:09;5.28;;;1.20;;
63114;SDS011;49208;50.874;6.466;2023-09-19T12:29:48;5.95;;;1.80;;
63114;SDS011;49208;50.874;6.466;2023-09-19T12:32:15;5.65;;;1.20;;
63114;SDS011;49208;50.874;6.466;2023-09-19T12:34:53;5.40;;;0.88;;
63114;SDS011;49208;50.874;6.466;2023-09-19T12:37:19;5.00;;;1.13;;
63114;SDS011;49208;50.874;6.466;2023-09-19T12:39:51;3.70;;;1.00;;
63114;SDS011;49208;50.874;6.466;2023-09-19T12:42:21;7.78;;;1.58;;
63114;SDS011;49208;50.874;6.466;2023-09-19T12:44:48;3.35;;;1.10;;
63114;SDS011;49208;50.874;6.466;2023-09-19T12:47:20;4.85;;;1.23;;
63114;SDS011;49208;50.874;6.466;2023-09-19T12:55:19;5.75;;;1.40;;
63114;SDS011;49208;50.874;6.466;2023-09-19T12:57:56;5.25;;;1.40;;
63114;SDS011;49208;50.874;6.466;2023-09-19T13:00:32;6.28;;;1.10;;
63114;SDS011;49208;50.874;6.466;2023-09-19T13:03:12;7.00;;;1.30;;
63114;SDS011;49208;50.874;6.466;2023-09-19T13:05:49;4.28;;;1.20;;
63114;SDS011;49208;50.874;6.466;2023-09-19T13:08:23;4.28;;;1.08;;
63114;SDS011;49208;50.874;6.466;2023-09-19T13:13:47;5.82;;;1.13;;
63114;SDS011;49208;50.874;6.466;2023-09-19T13:16:18;3.95;;;0.75;;
63114;SDS011;49208;50.874;6.466;2023-09-19T13:18:48;4.18;;;0.90;;
63114;SDS011;49208;50.874;6.466;2023-09-19T13:21:16;4.70;;;0.90;;
63114;SDS011;49208;50.874;6.466;2023-09-19T13:23:54;5.10;;;0.98;;
63114;SDS011;49208;50.874;6.466;2023-09-19T13:26:27;3.35;;;0.93;;
63114;SDS011;49208;50.874;6.466;2023-09-19T13:28:53;3.30;;;0.80;;
63114;SDS011;49208;50.874;6.466;2023-09-19T13:31:19;6.22;;;0.90;;
63114;SDS011;49208;50.874;6.466;2023-09-19T13:33:48;3.72;;;0.82;;
63114;SDS011;49208;50.874;6.466;2023-09-19T13:36:14;3.63;;;1.05;;
63114;SDS011;49208;50.874;6.466;2023-09-19T13:38:40;2.63;;;1.00;;
63114;SDS011;49208;50.874;6.466;2023-09-19T13:41:07;3.45;;;0.90;;
63114;SDS011;49208;50.874;6.466;2023-09-19T13:46:00;3.97;;;1.00;;
63114;SDS011;49208;50.874;6.466;2023-09-19T13:48:26;4.10;;;1.02;;
63114;SDS011;49208;50.874;6.466;2023-09-19T13:50:51;2.65;;;0.80;;
63114;SDS011;49208;50.874;6.466;2023-09-19T13:53:16;4.13;;;0.73;;
63114;SDS011;49208;50.874;6.466;2023-09-19T13:55:42;3.90;;;1.00;;
63114;SDS011;49208;50.874;6.466;2023-09-19T13:58:07;4.35;;;0.80;;
63114;SDS011;49208;50.874;6.466;2023-09-19T14:00:35;4.50;;;0.90;;
63114;SDS011;49208;50.874;6.466;2023-09-19T14:03:01;4.30;;;0.85;;
63114;SDS011;49208;50.874;6.466;2023-09-19T14:05:26;1.83;;;0.70;;
63114;SDS011;49208;50.874;6.466;2023-09-19T14:07:53;7.05;;;1.00;;
63114;SDS011;49208;50.874;6.466;2023-09-19T14:10:21;2.92;;;0.68;;
63114;SDS011;49208;50.874;6.466;2023-09-19T14:12:46;4.45;;;0.82;;
63114;SDS011;49208;50.874;6.466;2023-09-19T14:15:12;5.22;;;1.23;;
63114;SDS011;49208;50.874;6.466;2023-09-19T14:17:39;8.40;;;1.05;;
63114;SDS011;49208;50.874;6.466;2023-09-19T14:20:07;3.03;;;1.00;;
63114;SDS011;49208;50.874;6.466;2023-09-19T14:22:35;2.95;;;0.85;;
63114;SDS011;49208;50.874;6.466;2023-09-19T14:25:01;4.90;;;1.00;;
63114;SDS011;49208;50.874;6.466;2023-09-19T14:27:28;2.65;;;0.70;;
63114;SDS011;49208;50.874;6.466;2023-09-19T14:29:53;4.70;;;0.80;;
63114;SDS011;49208;50.874;6.466;2023-09-19T14:32:18;2.90;;;0.82;;
63114;SDS011;49208;50.874;6.466;2023-09-19T14:34:44;3.78;;;0.80;;
63114;SDS011;49208;50.874;6.466;2023-09-19T14:37:10;4.20;;;0.98;;
63114;SDS011;49208;50.874;6.466;2023-09-19T14:39:39;4.20;;;1.10;;
63114;SDS011;49208;50.874;6.466;2023-09-19T14:42:05;3.60;;;1.05;;
63114;SDS011;49208;50.874;6.466;2023-09-19T14:44:31;4.85;;;0.90;;
63114;SDS011;49208;50.874;6.466;2023-09-19T14:46:56;5.57;;;0.90;;
63114;SDS011;49208;50.874;6.466;2023-09-19T14:49:22;4.20;;;0.85;;
63114;SDS011;49208;50.874;6.466;2023-09-19T14:51:47;3.47;;;1.08;;
63114;SDS011;49208;50.874;6.466;2023-09-19T14:54:12;5.40;;;1.25;;
63114;SDS011;49208;50.874;6.466;2023-09-19T14:56:38;3.50;;;0.82;;
63114;SDS011;49208;50.874;6.466;2023-09-19T14:59:04;4.10;;;0.95;;
63114;SDS011;49208;50.874;6.466;2023-09-19T15:01:32;2.88;;;0.80;;
63114;SDS011;49208;50.874;6.466;2023-09-19T15:03:57;3.17;;;0.80;;
63114;SDS011;49208;50.874;6.466;2023-09-19T15:06:25;5.68;;;1.00;;
63114;SDS011;49208;50.874;6.466;2023-09-19T15:08:51;5.50;;;1.02;;
63114;SDS011;49208;50.874;6.466;2023-09-19T15:11:17;3.50;;;1.02;;
63114;SDS011;49208;50.874;6.466;2023-09-19T15:13:43;5.78;;;0.98;;
63114;SDS011;49208;50.874;6.466;2023-09-19T15:16:10;4.03;;;0.90;;
63114;SDS011;49208;50.874;6.466;2023-09-19T15:18:40;3.83;;;0.93;;
63114;SDS011;49208;50.874;6.466;2023-09-19T15:21:07;2.80;;;0.80;;
63114;SDS011;49208;50.874;6.466;2023-09-19T15:23:34;6.47;;;0.90;;
63114;SDS011;49208;50.874;6.466;2023-09-19T15:26:01;4.18;;;0.98;;
63114;SDS011;49208;50.874;6.466;2023-09-19T15:28:30;5.22;;;0.82;;
63114;SDS011;49208;50.874;6.466;2023-09-19T15:31:07;4.35;;;1.17;;
63114;SDS011;49208;50.874;6.466;2023-09-19T15:36:09;2.77;;;1.17;;
63114;SDS011;49208;50.874;6.466;2023-09-19T15:41:28;1.92;;;0.77;;
63114;SDS011;49208;50.874;6.466;2023-09-19T15:43:58;5.88;;;1.10;;
63114;SDS011;49208;50.874;6.466;2023-09-19T15:46:26;2.15;;;0.70;;
63114;SDS011;49208;50.874;6.466;2023-09-19T15:48:52;5.53;;;1.00;;
63114;SDS011;49208;50.874;6.466;2023-09-19T15:51:18;3.03;;;0.80;;
63114;SDS011;49208;50.874;6.466;2023-09-19T15:53:47;5.85;;;1.02;;
63114;SDS011;49208;50.874;6.466;2023-09-19T15:56:14;3.17;;;0.90;;
63114;SDS011;49208;50.874;6.466;2023-09-19T16:01:08;4.28;;;0.80;;
63114;SDS011;49208;50.874;6.466;2023-09-19T16:03:37;6.35;;;0.90;;
63114;SDS011;49208;50.874;6.466;2023-09-19T16:06:09;2.90;;;0.90;;
63114;SDS011;49208;50.874;6.466;2023-09-19T16:08:40;2.67;;;1.13;;
63114;SDS011;49208;50.874;6.466;2023-09-19T16:11:06;5.72;;;0.90;;
63114;SDS011;49208;50.874;6.466;2023-09-19T16:13:33;3.50;;;1.00;;
63114;SDS011;49208;50.874;6.466;2023-09-19T16:15:59;4.10;;;1.10;;
63114;SDS011;49208;50.874;6.466;2023-09-19T16:18:24;3.05;;;0.65;;
63114;SDS011;49208;50.874;6.466;2023-09-19T16:20:49;4.63;;;1.42;;
63114;SDS011;49208;50.874;6.466;2023-09-19T16:23:15;2.70;;;0.75;;
63114;SDS011;49208;50.874;6.466;2023-09-19T16:25:40;3.53;;;0.80;;
63114;SDS011;49208;50.874;6.466;2023-09-19T16:28:06;4.35;;;1.25;;
63114;SDS011;49208;50.874;6.466;2023-09-19T16:30:32;1.58;;;0.63;;
63114;SDS011;49208;50.874;6.466;2023-09-19T16:32:59;4.40;;;1.27;;
63114;SDS011;49208;50.874;6.466;2023-09-19T16:35:24;3.80;;;0.73;;
63114;SDS011;49208;50.874;6.466;2023-09-19T16:37:50;6.85;;;1.40;;
63114;SDS011;49208;50.874;6.466;2023-09-19T16:40:15;5.68;;;0.95;;
63114;SDS011;49208;50.874;6.466;2023-09-19T16:42:40;3.92;;;1.05;;
63114;SDS011;49208;50.874;6.466;2023-09-19T16:45:07;4.00;;;1.35;;
63114;SDS011;49208;50.874;6.466;2023-09-19T16:47:35;4.25;;;1.02;;
63114;SDS011;49208;50.874;6.466;2023-09-19T16:50:01;3.50;;;1.00;;
63114;SDS011;49208;50.874;6.466;2023-09-19T16:52:28;3.78;;;0.73;;
63114;SDS011;49208;50.874;6.466;2023-09-19T16:54:53;3.20;;;0.90;;
63114;SDS011;49208;50.874;6.466;2023-09-19T16:57:18;3.72;;;0.95;;
63114;SDS011;49208;50.874;6.466;2023-09-19T16:59:47;3.40;;;1.02;;
63114;SDS011;49208;50.874;6.466;2023-09-19T17:02:13;3.13;;;1.00;;
63114;SDS011;49208;50.874;6.466;2023-09-19T17:04:40;3.28;;;0.80;;
63114;SDS011;49208;50.874;6.466;2023-09-19T17:07:05;4.05;;;1.15;;
63114;SDS011;49208;50.874;6.466;2023-09-19T17:09:30;3.30;;;0.82;;
63114;SDS011;49208;50.874;6.466;2023-09-19T17:11:57;5.82;;;1.20;;
63114;SDS011;49208;50.874;6.466;2023-09-19T17:14:23;4.85;;;0.93;;
63114;SDS011;49208;50.874;6.466;2023-09-19T17:16:49;3.75;;;0.88;;
63114;SDS011;49208;50.874;6.466;2023-09-19T17:19:14;5.53;;;1.05;;
63114;SDS011;49208;50.874;6.466;2023-09-19T17:21:39;2.97;;;1.00;;
63114;SDS011;49208;50.874;6.466;2023-09-19T17:24:05;4.43;;;1.00;;
63114;SDS011;49208;50.874;6.466;2023-09-19T17:26:32;4.85;;;1.17;;
63114;SDS011;49208;50.874;6.466;2023-09-19T17:28:58;3.08;;;0.80;;
63114;SDS011;49208;50.874;6.466;2023-09-19T17:31:24;7.40;;;1.13;;
63114;SDS011;49208;50.874;6.466;2023-09-19T17:33:51;4.78;;;1.15;;
63114;SDS011;49208;50.874;6.466;2023-09-19T17:36:18;5.00;;;1.48;;
63114;SDS011;49208;50.874;6.466;2023-09-19T17:38:49;2.75;;;0.80;;
63114;SDS011;49208;50.874;6.466;2023-09-19T17:41:16;2.47;;;0.90;;
63114;SDS011;49208;50.874;6.466;2023-09-19T17:43:44;4.93;;;1.33;;
63114;SDS011;49208;50.874;6.466;2023-09-19T17:46:18;2.53;;;0.68;;
63114;SDS011;49208;50.874;6.466;2023-09-19T17:48:45;4.25;;;0.90;;
63114;SDS011;49208;50.874;6.466;2023-09-19T17:51:12;5.32;;;1.08;;
63114;SDS011;49208;50.874;6.466;2023-09-19T17:53:39;3.47;;;0.73;;
63114;SDS011;49208;50.874;6.466;2023-09-19T17:58:38;3.47;;;1.05;;
63114;SDS011;49208;50.874;6.466;2023-09-19T18:01:07;3.85;;;1.20;;
63114;SDS011;49208;50.874;6.466;2023-09-19T18:03:39;2.40;;;0.88;;
63114;SDS011;49208;50.874;6.466;2023-09-19T18:06:08;2.13;;;0.90;;
63114;SDS011;49208;50.874;6.466;2023-09-19T18:08:34;3.03;;;0.85;;
63114;SDS011;49208;50.874;6.466;2023-09-19T18:11:03;3.75;;;1.27;;
63114;SDS011;49208;50.874;6.466;2023-09-19T18:13:30;4.68;;;1.23;;
63114;SDS011;49208;50.874;6.466;2023-09-19T18:15:55;3.20;;;1.15;;
63114;SDS011;49208;50.874;6.466;2023-09-19T18:18:30;3.90;;;1.23;;
63114;SDS011;49208;50.874;6.466;2023-09-19T18:20:59;4.63;;;1.00;;
63114;SDS011;49208;50.874;6.466;2023-09-19T18:23:25;5.68;;;1.35;;
63114;SDS011;49208;50.874;6.466;2023-09-19T18:25:55;2.58;;;1.00;;
63114;SDS011;49208;50.874;6.466;2023-09-19T18:28:21;2.95;;;0.98;;
63114;SDS011;49208;50.874;6.466;2023-09-19T18:30:46;3.28;;;0.95;;
63114;SDS011;49208;50.874;6.466;2023-09-19T18:33:12;6.28;;;1.08;;
63114;SDS011;49208;50.874;6.466;2023-09-19T18:35:37;4.07;;;1.10;;
63114;SDS011;49208;50.874;6.466;2023-09-19T18:38:03;4.45;;;1.50;;
63114;SDS011;49208;50.874;6.466;2023-09-19T18:40:28;3.42;;;1.08;;
63114;SDS011;49208;50.874;6.466;2023-09-19T18:42:54;2.83;;;0.82;;
63114;SDS011;49208;50.874;6.466;2023-09-19T18:45:20;3.67;;;1.27;;
63114;SDS011;49208;50.874;6.466;2023-09-19T18:47:46;2.33;;;0.95;;
63114;SDS011;49208;50.874;6.466;2023-09-19T18:50:13;4.03;;;1.35;;
63114;SDS011;49208;50.874;6.466;2023-09-19T18:52:38;3.75;;;1.15;;
63114;SDS011;49208;50.874;6.466;2023-09-19T18:55:07;3.25;;;1.23;;
63114;SDS011;49208;50.874;6.466;2023-09-19T18:57:37;5.57;;;1.40;;
63114;SDS011;49208;50.874;6.466;2023-09-19T19:00:06;4.82;;;1.63;;
63114;SDS011;49208;50.874;6.466;2023-09-19T19:02:35;5.60;;;1.00;;
63114;SDS011;49208;50.874;6.466;2023-09-19T19:05:03;2.92;;;0.93;;
63114;SDS011;49208;50.874;6.466;2023-09-19T19:07:29;5.70;;;1.33;;
63114;SDS011;49208;50.874;6.466;2023-09-19T19:09:55;5.03;;;1.38;;
63114;SDS011;49208;50.874;6.466;2023-09-19T19:12:20;2.55;;;0.82;;
63114;SDS011;49208;50.874;6.466;2023-09-19T19:14:47;4.32;;;1.00;;
63114;SDS011;49208;50.874;6.466;2023-09-19T19:17:13;3.33;;;1.20;;
63114;SDS011;49208;50.874;6.466;2023-09-19T19:22:06;3.10;;;1.10;;
63114;SDS011;49208;50.874;6.466;2023-09-19T19:24:32;3.63;;;1.20;;
63114;SDS011;49208;50.874;6.466;2023-09-19T19:26:58;4.33;;;1.40;;
63114;SDS011;49208;50.874;6.466;2023-09-19T19:29:24;2.72;;;1.05;;
63114;SDS011;49208;50.874;6.466;2023-09-19T19:31:49;3.53;;;1.25;;
63114;SDS011;49208;50.874;6.466;2023-09-19T19:34:17;5.22;;;1.25;;
63114;SDS011;49208;50.874;6.466;2023-09-19T19:36:42;2.90;;;1.40;;
63114;SDS011;49208;50.874;6.466;2023-09-19T19:39:09;2.60;;;1.15;;
63114;SDS011;49208;50.874;6.466;2023-09-19T19:41:37;4.25;;;1.10;;
63114;SDS011;49208;50.874;6.466;2023-09-19T19:44:03;6.03;;;1.33;;
63114;SDS011;49208;50.874;6.466;2023-09-19T19:46:29;4.50;;;1.40;;
63114;SDS011;49208;50.874;6.466;2023-09-19T19:48:54;3.75;;;1.50;;
63114;SDS011;49208;50.874;6.466;2023-09-19T19:51:20;4.95;;;1.40;;
63114;SDS011;49208;50.874;6.466;2023-09-19T19:53:45;3.42;;;1.10;;
63114;SDS011;49208;50.874;6.466;2023-09-19T19:56:12;1.83;;;0.85;;
63114;SDS011;49208;50.874;6.466;2023-09-19T19:58:38;2.90;;;1.27;;
63114;SDS011;49208;50.874;6.466;2023-09-19T20:01:03;3.65;;;1.40;;
63114;SDS011;49208;50.874;6.466;2023-09-19T20:03:35;5.70;;;1.52;;
63114;SDS011;49208;50.874;6.466;2023-09-19T20:06:01;3.72;;;1.10;;
63114;SDS011;49208;50.874;6.466;2023-09-19T20:08:28;7.00;;;1.63;;
63114;SDS011;49208;50.874;6.466;2023-09-19T20:10:53;3.22;;;1.27;;
63114;SDS011;49208;50.874;6.466;2023-09-19T20:13:24;5.65;;;1.30;;
63114;SDS011;49208;50.874;6.466;2023-09-19T20:15:53;5.70;;;1.80;;
63114;SDS011;49208;50.874;6.466;2023-09-19T20:18:19;3.20;;;1.08;;
63114;SDS011;49208;50.874;6.466;2023-09-19T20:20:45;5.32;;;1.58;;
63114;SDS011;49208;50.874;6.466;2023-09-19T20:23:10;3.05;;;1.15;;
63114;SDS011;49208;50.874;6.466;2023-09-19T20:25:36;8.38;;;1.73;;
63114;SDS011;49208;50.874;6.466;2023-09-19T20:28:04;4.30;;;1.52;;
63114;SDS011;49208;50.874;6.466;2023-09-19T20:30:30;9.35;;;1.85;;
63114;SDS011;49208;50.874;6.466;2023-09-19T20:32:59;4.43;;;1.60;;
63114;SDS011;49208;50.874;6.466;2023-09-19T20:35:30;3.25;;;1.50;;
63114;SDS011;49208;50.874;6.466;2023-09-19T20:38:01;6.88;;;1.50;;
63114;SDS011;49208;50.874;6.466;2023-09-19T20:40:28;4.40;;;1.88;;
63114;SDS011;49208;50.874;6.466;2023-09-19T20:42:53;6.93;;;1.65;;
63114;SDS011;49208;50.874;6.466;2023-09-19T20:45:19;4.10;;;1.80;;
63114;SDS011;49208;50.874;6.466;2023-09-19T20:47:45;6.03;;;2.15;;
63114;SDS011;49208;50.874;6.466;2023-09-19T20:50:12;3.60;;;1.58;;
63114;SDS011;49208;50.874;6.466;2023-09-19T20:52:37;6.22;;;1.40;;
63114;SDS011;49208;50.874;6.466;2023-09-19T20:55:03;5.30;;;2.33;;
63114;SDS011;49208;50.874;6.466;2023-09-19T20:57:30;6.28;;;1.85;;
63114;SDS011;49208;50.874;6.466;2023-09-19T20:59:55;4.22;;;1.90;;
63114;SDS011;49208;50.874;6.466;2023-09-19T21:02:21;4.68;;;1.42;;
63114;SDS011;49208;50.874;6.466;2023-09-19T21:04:46;5.53;;;1.50;;
63114;SDS011;49208;50.874;6.466;2023-09-19T21:07:12;4.80;;;1.50;;
63114;SDS011;49208;50.874;6.466;2023-09-19T21:09:37;5.45;;;1.10;;
63114;SDS011;49208;50.874;6.466;2023-09-19T21:12:03;4.45;;;1.90;;
63114;SDS011;49208;50.874;6.466;2023-09-19T21:14:30;6.55;;;2.10;;
63114;SDS011;49208;50.874;6.466;2023-09-19T21:16:56;4.30;;;1.73;;
63114;SDS011;49208;50.874;6.466;2023-09-19T21:19:22;4.57;;;1.63;;
63114;SDS011;49208;50.874;6.466;2023-09-19T21:21:48;4.40;;;1.85;;
63114;SDS011;49208;50.874;6.466;2023-09-19T21:24:14;5.32;;;1.40;;
63114;SDS011;49208;50.874;6.466;2023-09-19T21:26:43;4.03;;;1.38;;
63114;SDS011;49208;50.874;6.466;2023-09-19T21:29:10;4.75;;;1.38;;
63114;SDS011;49208;50.874;6.466;2023-09-19T21:31:35;5.35;;;1.80;;
63114;SDS011;49208;50.874;6.466;2023-09-19T21:34:01;4.43;;;1.48;;
63114;SDS011;49208;50.874;6.466;2023-09-19T21:36:28;4.00;;;1.48;;
63114;SDS011;49208;50.874;6.466;2023-09-19T21:38:58;7.13;;;1.98;;
63114;SDS011;49208;50.874;6.466;2023-09-19T21:41:24;5.60;;;2.03;;
63114;SDS011;49208;50.874;6.466;2023-09-19T21:43:51;6.95;;;1.70;;
63114;SDS011;49208;50.874;6.466;2023-09-19T21:46:17;7.47;;;1.75;;
63114;SDS011;49208;50.874;6.466;2023-09-19T21:48:42;6.75;;;2.17;;
63114;SDS011;49208;50.874;6.466;2023-09-19T21:51:13;5.90;;;1.50;;
63114;SDS011;49208;50.874;6.466;2023-09-19T21:53:40;7.63;;;1.77;;
63114;SDS011;49208;50.874;6.466;2023-09-19T21:56:06;6.07;;;1.63;;
63114;SDS011;49208;50.874;6.466;2023-09-19T21:58:31;5.50;;;1.80;;
